aviador You're here:

BIAR Decoded Metar

AKUREYRI in ICELAND
Report Time2018-07-16 10:00:00
UTC Time2018-07-16 10:22:29
Flight Rules mvfr MVFR
Wind340° at 10 kt
W.Decomp.*RWY 01: 9.6 kt HW 2.8 kt LCW
W.Rank340° ranks 1
Current wind is above 340° avg. (9.8)
Visibility9999 m
Phenomena:Light Rain
Clouds:Scattered 007 Hf
Broken 012 Hf
Overcast 026 Hf
Ceiling1,200 ft
Temp08°C (ISA -7)
Dew Point08°C (100% RH)
AAT3.9°C
QNH1003 hPa
Density Alt-348 ft
Elevation7 ft
Report Wrong Elevation
Raw Report
METAR BIAR 161000Z 34010KT 9999 -RA SCT007 BKN012 OVC026 08/08 Q1003=

Extra information for BIAR:More info

Metar Taf Metar & Taf Last 4 Metars F.Rules Stats Wind Profile Meteogram Temp Stats Airport Information Weather charts Add Link Nearby VenuesMetar ALERT Operation Metar Decoded Social comments